Time;durP1;ratioP1;P1;durP2;ratioP2;P2;SDS_P1;SDS_P2;PMS_P1;PMS_P2;Temp;Humidity;BMP_temperature;BMP_pressure;BME280_temperature;BME280_humidity;BME280_pressure;Samples;Min_cycle;Max_cycle;Signal;HPM_P1;HPM_P2
2023/01/30 00:01:28;;;;;;;27.25;15.32;;;-1.90;99.90;;;;;;4871403;29;20117;-75
2023/01/30 00:03:54;;;;;;;25.60;15.07;;;-1.80;99.90;;;;;;4870522;29;20049;-76
2023/01/30 00:06:20;;;;;;;25.33;15.20;;;-1.80;99.90;;;;;;4871201;29;20054;-75
2023/01/30 00:08:46;;;;;;;26.45;14.85;;;-1.80;99.90;;;;;;4871332;29;20212;-76
2023/01/30 00:11:14;;;;;;;25.60;15.13;;;-1.80;99.90;;;;;;4871171;29;20040;-76
2023/01/30 00:13:41;;;;;;;27.30;15.60;;;-1.90;99.90;;;;;;4871267;29;20041;-76
2023/01/30 00:16:11;;;;;;;31.65;17.35;;;-1.90;99.90;;;;;;4870928;29;20068;-76
2023/01/30 00:18:38;;;;;;;30.45;15.98;;;-1.90;99.90;;;;;;4871166;29;20031;-75
2023/01/30 00:21:07;;;;;;;30.83;16.03;;;-1.90;99.90;;;;;;4871310;29;20299;-76
2023/01/30 00:23:34;;;;;;;26.95;16.05;;;-1.90;99.90;;;;;;4870618;29;20438;-76
2023/01/30 00:26:00;;;;;;;28.67;15.30;;;-1.90;99.90;;;;;;4870864;29;20037;-75
2023/01/30 00:28:26;;;;;;;32.15;15.75;;;-1.80;99.90;;;;;;4870472;29;20057;-77
2023/01/30 06:02:01;;;;;;;11.65;6.65;;;1.10;99.90;;;;;;5572163;23;20044;-78
2023/01/30 06:04:27;;;;;;;11.55;6.70;;;1.10;99.90;;;;;;4900098;29;20040;-77
2023/01/30 06:06:53;;;;;;;12.80;6.97;;;1.10;99.90;;;;;;4901785;29;20040;-77
2023/01/30 06:09:18;;;;;;;12.90;6.30;;;1.10;99.90;;;;;;4897751;29;20029;-76
2023/01/30 06:11:44;;;;;;;13.75;6.78;;;1.10;99.90;;;;;;4906250;29;20036;-76
2023/01/30 06:14:10;;;;;;;12.40;6.82;;;1.10;99.90;;;;;;4906774;29;20096;-77
2023/01/30 06:16:35;;;;;;;12.27;6.93;;;1.20;99.90;;;;;;4906178;29;20294;-77
2023/01/30 06:19:01;;;;;;;12.07;6.65;;;1.20;99.90;;;;;;4902441;29;20026;-75
2023/01/30 06:21:27;;;;;;;14.95;7.53;;;1.20;99.90;;;;;;4896797;29;20032;-75
2023/01/30 06:23:52;;;;;;;12.13;6.47;;;1.20;99.90;;;;;;4905853;29;20032;-76
2023/01/30 06:26:18;;;;;;;11.13;6.53;;;1.30;99.90;;;;;;4905523;29;20047;-74
2023/01/30 06:28:44;;;;;;;14.20;7.45;;;1.20;99.90;;;;;;4906335;29;20084;-72
2023/01/30 06:31:10;;;;;;;11.40;6.40;;;1.10;99.90;;;;;;4906552;29;20044;-75
2023/01/30 06:33:36;;;;;;;11.32;6.43;;;1.00;99.90;;;;;;4905989;29;20037;-75
2023/01/30 06:36:02;;;;;;;12.07;6.47;;;0.90;99.90;;;;;;4897818;29;20037;-75
2023/01/30 06:38:27;;;;;;;12.32;6.53;;;0.90;99.90;;;;;;4887936;29;20056;-75
2023/01/30 06:40:53;;;;;;;12.27;6.38;;;1.00;99.90;;;;;;4887900;29;20195;-77
2023/01/30 06:43:19;;;;;;;12.38;6.47;;;1.00;99.90;;;;;;4888119;29;20222;-74
2023/01/30 06:45:44;;;;;;;11.18;6.50;;;1.10;99.90;;;;;;4887175;29;20096;-75
2023/01/30 06:48:10;;;;;;;12.23;7.13;;;1.10;99.90;;;;;;4887879;29;20255;-76
2023/01/30 06:50:36;;;;;;;12.18;6.88;;;1.10;99.90;;;;;;4887501;29;20040;-77
2023/01/30 06:53:04;;;;;;;12.75;7.03;;;1.10;99.90;;;;;;4887901;29;20349;-75
2023/01/30 06:55:39;;;;;;;14.55;7.22;;;1.10;99.90;;;;;;4886647;29;20226;-75
2023/01/30 06:58:07;;;;;;;13.38;6.95;;;1.10;99.90;;;;;;4887760;29;20032;-76
2023/01/30 07:00:33;;;;;;;;;;;1.10;99.90;;;;;;4888265;29;20068;-78
2023/01/30 07:02:59;;;;;;;10.60;5.93;;;1.20;99.90;;;;;;4886779;29;19934;-77
2023/01/30 07:05:27;;;;;;;12.68;6.32;;;1.20;99.90;;;;;;4887705;29;20047;-74
2023/01/30 07:07:53;;;;;;;12.13;6.25;;;1.20;99.90;;;;;;4887552;29;20078;-75
2023/01/30 07:10:19;;;;;;;13.75;6.63;;;1.30;99.90;;;;;;4887972;29;20033;-77
2023/01/30 07:12:46;;;;;;;11.15;5.90;;;1.20;99.90;;;;;;4887112;29;20379;-74
2023/01/30 07:15:12;;;;;;;11.73;5.93;;;1.20;99.90;;;;;;4891374;29;20341;-76
2023/01/30 07:17:40;;;;;;;12.30;6.63;;;1.30;99.90;;;;;;4890647;29;20032;-75
2023/01/30 07:20:06;;;;;;;;;;;1.30;99.90;;;;;;4892043;29;20037;-75
2023/01/30 07:22:32;;;;;;;12.45;6.68;;;1.30;99.90;;;;;;4891225;29;20231;-78
2023/01/30 07:24:58;;;;;;;13.45;7.22;;;1.30;99.90;;;;;;4890660;29;20049;-76
2023/01/30 07:27:23;;;;;;;13.10;6.18;;;1.30;99.90;;;;;;4890886;29;20025;-77
2023/01/30 07:29:49;;;;;;;12.40;6.82;;;1.30;99.90;;;;;;4888942;29;20062;-76
2023/01/30 07:32:18;;;;;;;12.48;6.18;;;1.30;99.90;;;;;;4874614;29;20145;-75
2023/01/30 07:34:45;;;;;;;11.90;7.03;;;1.30;99.90;;;;;;4890557;29;20041;-75
2023/01/30 07:37:11;;;;;;;12.45;6.88;;;1.30;99.90;;;;;;4889639;29;20077;-74
2023/01/30 07:39:37;;;;;;;11.70;6.55;;;1.30;99.90;;;;;;4897851;29;20203;-73
2023/01/30 07:42:03;;;;;;;12.13;6.88;;;1.30;99.90;;;;;;4890005;29;20077;-77
2023/01/30 07:44:29;;;;;;;12.10;6.50;;;1.30;99.90;;;;;;4890271;29;20099;-74
2023/01/30 07:46:55;;;;;;;11.40;6.60;;;1.40;99.90;;;;;;4889839;29;20052;-76
2023/01/30 07:49:21;;;;;;;12.98;7.28;;;1.40;99.90;;;;;;4889246;29;20260;-74
2023/01/30 07:51:46;;;;;;;13.50;6.57;;;1.50;99.90;;;;;;4888840;29;20032;-73
2023/01/30 07:54:12;;;;;;;11.43;6.72;;;1.50;99.90;;;;;;4889461;29;20047;-74
2023/01/30 07:56:38;;;;;;;12.82;6.43;;;1.60;99.90;;;;;;4890140;29;20333;-72
2023/01/30 07:59:04;;;;;;;13.10;6.30;;;1.70;99.90;;;;;;4887365;29;20057;-74
2023/01/30 08:01:31;;;;;;;11.80;6.07;;;1.70;99.90;;;;;;4890137;29;20036;-74
2023/01/30 08:03:57;;;;;;;10.75;5.93;;;1.80;99.90;;;;;;4888693;29;20230;-75
2023/01/30 08:06:23;;;;;;;12.52;6.07;;;1.80;99.90;;;;;;4890515;29;20037;-75
2023/01/30 08:08:48;;;;;;;11.23;6.10;;;1.80;99.90;;;;;;4904420;29;20025;-74
2023/01/30 08:11:14;;;;;;;10.95;5.70;;;1.80;99.90;;;;;;4904826;29;20145;-73
2023/01/30 08:13:40;;;;;;;11.00;5.57;;;1.80;99.90;;;;;;4904219;29;20101;-74
2023/01/30 08:16:06;;;;;;;13.50;6.20;;;1.80;99.90;;;;;;4889944;29;20358;-76
2023/01/30 08:18:33;;;;;;;10.35;5.63;;;1.90;99.90;;;;;;4890445;29;20148;-74
2023/01/30 08:21:01;;;;;;;11.18;5.93;;;1.90;99.90;;;;;;4889720;29;20044;-75
2023/01/30 08:23:27;;;;;;;11.13;6.07;;;1.90;99.90;;;;;;4890201;29;20045;-74
2023/01/30 08:25:57;;;;;;;11.65;5.85;;;2.00;99.90;;;;;;4888793;29;20037;-73
2023/01/30 08:28:23;;;;;;;10.80;5.45;;;2.00;99.90;;;;;;4901407;29;20033;-75
2023/01/30 08:30:51;;;;;;;11.02;5.85;;;1.90;99.90;;;;;;4870726;29;20323;-74
2023/01/30 08:33:17;;;;;;;9.90;5.38;;;1.80;99.90;;;;;;4871321;29;20093;-74
2023/01/30 08:35:42;;;;;;;10.18;5.40;;;1.80;99.90;;;;;;4870739;29;20069;-74
2023/01/30 08:38:08;;;;;;;10.18;5.68;;;1.80;99.90;;;;;;4883375;29;20022;-77
2023/01/30 08:40:35;;;;;;;12.23;6.00;;;1.80;99.90;;;;;;4889813;29;20033;-75
2023/01/30 08:43:00;;;;;;;10.68;5.28;;;1.80;99.90;;;;;;4889262;29;20057;-74
2023/01/30 08:45:27;;;;;;;10.43;5.53;;;2.00;99.90;;;;;;4889391;29;20041;-77
2023/01/30 08:48:06;;;;;;;10.65;5.85;;;2.20;99.90;;;;;;4889184;29;20041;-74
2023/01/30 08:50:32;;;;;;;8.07;4.75;;;2.40;99.90;;;;;;4889700;29;20252;-75
2023/01/30 08:53:04;;;;;;;9.95;5.50;;;2.50;99.90;;;;;;4888632;29;20088;-75
2023/01/30 08:55:29;;;;;;;9.77;5.20;;;2.60;99.90;;;;;;4889430;29;20033;-78
2023/01/30 08:57:55;;;;;;;8.45;5.07;;;2.70;99.90;;;;;;4888523;29;20092;-75
2023/01/30 09:00:21;;;;;;;8.32;4.80;;;2.60;99.90;;;;;;4889498;29;20096;-77
2023/01/30 09:02:47;;;;;;;9.45;5.03;;;2.70;99.90;;;;;;4888280;29;20230;-75
2023/01/30 09:05:13;;;;;;;9.95;5.03;;;2.60;99.90;;;;;;4889332;29;20037;-76
2023/01/30 09:07:39;;;;;;;8.98;4.63;;;2.70;99.90;;;;;;4889260;29;20143;-76
2023/01/30 09:10:05;;;;;;;6.85;4.18;;;2.60;99.90;;;;;;4888467;29;20029;-75
2023/01/30 09:12:31;;;;;;;8.43;4.50;;;2.70;99.90;;;;;;4889106;29;20131;-75
2023/01/30 09:14:57;;;;;;;8.23;4.80;;;2.80;99.90;;;;;;4888853;29;20263;-74
2023/01/30 09:17:23;;;;;;;8.48;5.05;;;3.00;99.90;;;;;;4888936;29;20226;-77
2023/01/30 09:19:49;;;;;;;7.43;4.30;;;3.20;99.90;;;;;;4887402;29;20033;-76
2023/01/30 09:22:16;;;;;;;6.55;3.97;;;3.40;99.90;;;;;;4889203;29;20211;-78
2023/01/30 09:24:41;;;;;;;8.38;4.32;;;3.70;99.90;;;;;;4903702;29;20084;-77
2023/01/30 09:27:08;;;;;;;9.25;4.50;;;3.60;99.90;;;;;;4903068;29;20199;-76
2023/01/30 09:29:33;;;;;;;7.65;3.80;;;3.50;99.90;;;;;;4888573;29;20032;-77
2023/01/30 09:31:59;;;;;;;9.48;4.70;;;3.40;99.90;;;;;;4888346;29;20040;-78
2023/01/30 09:34:27;;;;;;;9.55;4.75;;;3.30;99.90;;;;;;4889024;29;20064;-76
2023/01/30 09:37:03;;;;;;;8.55;4.93;;;3.10;99.90;;;;;;4887151;29;20085;-78
2023/01/30 09:39:28;;;;;;;8.93;4.75;;;3.10;99.90;;;;;;4888708;29;20227;-75
2023/01/30 09:42:03;;;;;;;8.55;4.30;;;3.00;99.90;;;;;;4887933;29;20037;-75
2023/01/30 09:44:47;;;;;;;10.88;5.45;;;3.00;99.90;;;;;;4888675;29;20064;-76
2023/01/30 09:47:24;;;;;;;8.23;4.57;;;3.10;99.90;;;;;;4888945;29;20051;-76
2023/01/30 09:50:05;;;;;;;9.23;4.15;;;3.20;99.90;;;;;;4888343;29;20044;-76
2023/01/30 09:53:10;;;;;;;9.85;4.72;;;3.30;99.90;;;;;;4887384;29;20036;-77
2023/01/30 09:55:40;;;;;;;9.05;4.35;;;3.40;99.90;;;;;;4888601;29;20071;-77
2023/01/30 09:58:17;;;;;;;6.78;3.92;;;3.50;99.90;;;;;;4887756;29;20298;-77
2023/01/30 10:00:42;;;;;;;7.10;3.80;;;3.60;99.90;;;;;;4902466;29;20286;-75
2023/01/30 10:03:33;;;;;;;6.40;3.10;;;3.70;99.90;;;;;;4887763;29;20060;-75
2023/01/30 10:06:11;;;;;;;6.45;3.30;;;3.80;99.90;;;;;;4887659;29;20044;-75
2023/01/30 10:09:04;;;;;;;5.70;3.03;;;3.90;99.90;;;;;;4887906;29;20223;-76
2023/01/30 10:11:46;;;;;;;7.13;3.65;;;4.10;99.90;;;;;;4887955;29;20366;-77
2023/01/30 10:14:36;;;;;;;6.00;3.13;;;4.30;99.90;;;;;;4887841;29;20055;-76
2023/01/30 10:17:26;;;;;;;7.53;3.10;;;4.40;99.90;;;;;;4902191;29;20108;-76
2023/01/30 10:20:36;;;;;;;7.20;3.80;;;4.60;99.90;;;;;;4887567;29;20127;-77
2023/01/30 10:23:33;;;;;;;5.78;3.20;;;4.60;99.90;;;;;;4886646;29;20315;-74
2023/01/30 10:26:08;;;;;;;6.45;2.45;;;4.70;99.90;;;;;;4887113;29;20049;-74
2023/01/30 10:28:39;;;;;;;6.63;2.85;;;4.70;99.90;;;;;;4888005;29;20021;-78
2023/01/30 10:31:18;;;;;;;5.75;2.75;;;4.60;99.90;;;;;;4887470;29;20059;-77
2023/01/30 10:33:49;;;;;;;;;;;4.60;99.90;;;;;;4888299;29;20056;-77
2023/01/30 10:36:30;;;;;;;4.35;2.15;;;4.70;99.90;;;;;;4887937;29;19926;-74
2023/01/30 10:38:59;;;;;;;7.82;2.80;;;4.70;99.90;;;;;;4886033;29;20029;-75
2023/01/30 10:41:47;;;;;;;4.75;2.13;;;4.70;99.90;;;;;;4887565;29;20223;-76
2023/01/30 10:44:13;;;;;;;4.43;2.13;;;4.70;99.90;;;;;;4887506;29;20103;-77
2023/01/30 10:47:05;;;;;;;3.85;2.08;;;4.70;99.90;;;;;;4887923;29;20036;-77
2023/01/30 10:49:49;;;;;;;6.85;2.15;;;4.80;99.90;;;;;;4890475;29;20226;-77
2023/01/30 10:52:23;;;;;;;5.35;2.20;;;4.80;99.90;;;;;;4891703;29;20252;-78
2023/01/30 10:55:18;;;;;;;4.03;1.83;;;4.70;99.90;;;;;;4890566;29;20345;-78
2023/01/30 10:58:08;;;;;;;5.55;2.00;;;4.70;99.90;;;;;;4885903;29;20033;-76
2023/01/30 11:01:05;;;;;;;6.93;2.10;;;4.60;99.90;;;;;;4877010;29;20033;-79
2023/01/30 11:03:50;;;;;;;3.38;1.73;;;4.70;99.90;;;;;;4880112;29;20041;-77
2023/01/30 11:06:25;;;;;;;4.78;2.00;;;4.60;99.90;;;;;;4891241;29;20127;-78
2023/01/30 11:08:53;;;;;;;3.42;1.70;;;4.60;99.90;;;;;;4905173;29;20069;-78
2023/01/30 11:11:28;;;;;;;5.18;1.90;;;4.50;99.90;;;;;;4891122;29;20277;-80
2023/01/30 11:14:09;;;;;;;3.92;1.73;;;4.60;99.90;;;;;;4890482;29;20325;-77
2023/01/30 11:16:51;;;;;;;4.70;2.38;;;4.60;99.90;;;;;;4893576;29;20055;-76
2023/01/30 11:19:43;;;;;;;3.28;1.55;;;4.60;99.90;;;;;;4888150;29;20043;-77
2023/01/30 11:22:13;;;;;;;4.15;1.80;;;4.60;99.90;;;;;;4891198;29;20037;-78
2023/01/30 11:24:43;;;;;;;4.47;1.80;;;4.40;99.90;;;;;;4891146;29;20041;-78
2023/01/30 11:27:29;;;;;;;3.67;1.73;;;4.40;99.90;;;;;;4889861;29;20225;-81
2023/01/30 11:30:15;;;;;;;4.78;1.73;;;4.30;99.90;;;;;;4890159;29;20028;-79
2023/01/30 11:32:46;;;;;;;4.95;2.30;;;4.40;99.90;;;;;;4889508;29;20040;-78
2023/01/30 11:35:50;;;;;;;3.53;1.85;;;4.40;99.90;;;;;;4889533;29;20099;-78
2023/01/30 11:38:32;;;;;;;3.85;2.15;;;4.50;99.90;;;;;;4895264;29;20049;-76
2023/01/30 11:41:02;;;;;;;5.50;2.25;;;4.50;99.90;;;;;;4889346;29;20119;-78
2023/01/30 11:43:28;;;;;;;5.43;2.78;;;4.40;99.90;;;;;;4890615;29;20222;-78
2023/01/30 11:45:54;;;;;;;5.18;2.65;;;4.20;99.90;;;;;;4888756;29;20024;-77
2023/01/30 11:48:25;;;;;;;7.28;2.60;;;4.00;99.90;;;;;;4890900;29;20375;-79
2023/01/30 11:51:01;;;;;;;6.30;3.05;;;3.80;99.90;;;;;;4890570;29;20059;-77
2023/01/30 11:54:05;;;;;;;5.55;2.72;;;3.60;99.90;;;;;;4877661;29;20039;-80
2023/01/30 11:56:53;;;;;;;6.18;2.92;;;3.60;99.90;;;;;;4873881;29;20049;-77
2023/01/30 11:59:29;;;;;;;6.88;3.45;;;3.50;99.90;;;;;;4871887;29;20045;-77
2023/01/30 12:02:25;;;;;;;5.65;3.00;;;3.50;99.90;;;;;;4870412;29;20096;-77
2023/01/30 12:04:55;;;;;;;5.97;2.97;;;3.50;99.90;;;;;;4872077;29;20073;-80
2023/01/30 12:07:24;;;;;;;5.78;3.20;;;3.50;99.90;;;;;;4886618;29;20029;-78
2023/01/30 12:09:51;;;;;;;6.50;3.58;;;3.40;99.90;;;;;;4871773;29;20032;-78
2023/01/30 12:12:31;;;;;;;6.03;3.20;;;3.40;99.90;;;;;;4871862;29;20021;-79
2023/01/30 12:15:30;;;;;;;7.28;3.10;;;3.40;99.90;;;;;;4871298;29;20116;-78
2023/01/30 12:18:28;;;;;;;6.20;2.83;;;3.40;99.90;;;;;;4872976;29;20059;-77
2023/01/30 12:21:01;;;;;;;;;;;3.40;99.90;;;;;;4871676;29;20120;-76
2023/01/30 12:23:53;;;;;;;5.85;2.67;;;3.40;99.90;;;;;;4886429;29;19971;-78
2023/01/30 12:26:43;;;;;;;5.97;2.92;;;3.40;99.90;;;;;;4885995;29;20051;-79
2023/01/30 12:29:44;;;;;;;6.22;3.38;;;3.40;99.90;;;;;;4877114;29;20033;-76
2023/01/30 12:32:17;;;;;;;5.68;3.15;;;3.40;99.90;;;;;;4891041;29;20272;-78
2023/01/30 12:34:46;;;;;;;5.90;3.03;;;3.40;99.90;;;;;;4889083;29;20041;-80
2023/01/30 12:37:15;;;;;;;7.45;3.47;;;3.50;99.90;;;;;;4888696;29;20103;-77
2023/01/30 12:39:55;;;;;;;6.63;3.42;;;3.60;99.90;;;;;;4881899;29;20329;-78
2023/01/30 12:42:53;;;;;;;6.63;3.20;;;3.60;99.90;;;;;;4878364;29;20040;-77
2023/01/30 12:45:37;;;;;;;6.70;3.30;;;3.60;99.90;;;;;;4889155;29;20040;-77
2023/01/30 12:48:03;;;;;;;6.00;3.15;;;3.60;99.90;;;;;;4870916;29;20041;-76
2023/01/30 12:50:34;;;;;;;6.60;3.53;;;3.60;99.90;;;;;;4870066;29;20060;-78
2023/01/30 12:53:15;;;;;;;6.72;3.00;;;3.50;99.90;;;;;;4886771;29;20040;-76
2023/01/30 12:56:00;;;;;;;8.80;3.50;;;3.50;99.90;;;;;;4892651;29;20037;-77
2023/01/30 12:58:29;;;;;;;7.43;3.65;;;3.50;99.90;;;;;;4871213;29;20120;-77
2023/01/30 13:01:07;;;;;;;7.63;3.78;;;3.40;99.90;;;;;;4870383;29;20040;-78
2023/01/30 13:03:36;;;;;;;8.30;3.88;;;3.40;99.90;;;;;;4881060;29;20037;-76
2023/01/30 13:06:37;;;;;;;8.90;3.85;;;3.30;99.90;;;;;;4888708;29;20029;-79
2023/01/30 13:09:21;;;;;;;8.57;4.00;;;3.40;99.90;;;;;;4903262;29;20040;-77
2023/01/30 13:11:53;;;;;;;6.95;3.72;;;3.40;99.90;;;;;;4889138;29;20120;-80
2023/01/30 13:14:38;;;;;;;7.38;2.92;;;3.40;99.90;;;;;;4889472;29;20100;-78
2023/01/30 13:17:25;;;;;;;7.90;3.63;;;3.40;99.90;;;;;;4888694;29;20327;-79
2023/01/30 13:20:05;;;;;;;7.88;3.28;;;3.30;99.90;;;;;;4888680;29;20073;-78
2023/01/30 13:22:51;;;;;;;6.63;3.47;;;3.40;99.90;;;;;;4888837;29;20060;-85
2023/01/30 13:25:58;;;;;;;7.72;3.63;;;3.50;99.90;;;;;;4889225;29;20103;-84
2023/01/30 13:28:41;;;;;;;6.00;3.33;;;3.50;99.90;;;;;;4872473;29;20294;-85
2023/01/30 13:31:16;;;;;;;7.10;3.50;;;3.60;99.90;;;;;;4889614;29;20033;-83
2023/01/30 13:33:59;;;;;;;8.40;3.78;;;3.70;99.90;;;;;;4872798;29;20065;-81
2023/01/30 13:39:51;;;;;;;7.80;3.50;;;3.90;99.90;;;;;;4888068;29;20033;-83
2023/01/30 13:42:31;;;;;;;5.72;3.13;;;3.90;99.90;;;;;;4871175;29;20036;-77
2023/01/30 13:45:00;;;;;;;6.63;3.38;;;4.00;99.90;;;;;;4886816;29;20041;-81
2023/01/30 13:48:03;;;;;;;6.80;3.00;;;4.10;99.90;;;;;;4871427;29;20044;-79
2023/01/30 13:50:34;;;;;;;6.78;3.13;;;4.10;99.90;;;;;;4838095;29;20085;-81
2023/01/30 13:53:16;;;;;;;5.07;2.80;;;4.10;99.90;;;;;;4858873;29;20044;-79
2023/01/30 13:56:00;;;;;;;6.50;2.60;;;4.30;99.90;;;;;;4853043;29;20154;-79
2023/01/30 13:58:42;;;;;;;7.03;2.40;;;4.30;99.90;;;;;;4867590;29;20221;-75
2023/01/30 14:01:12;;;;;;;8.13;2.80;;;4.20;99.90;;;;;;4867229;29;20339;-77
2023/01/30 14:03:40;;;;;;;5.03;2.10;;;4.20;99.90;;;;;;4855252;29;20335;-76
2023/01/30 14:07:01;;;;;;;4.13;1.60;;;4.30;99.90;;;;;;4849131;29;20454;-83
2023/01/30 14:09:36;;;;;;;5.00;1.30;;;4.50;99.90;;;;;;4885905;29;20322;-80
2023/01/30 14:12:03;;;;;;;3.28;1.25;;;4.70;99.90;;;;;;4870089;29;20049;-78
2023/01/30 14:14:35;;;;;;;2.50;1.13;;;4.90;99.90;;;;;;4907401;29;20031;-79
2023/01/30 14:17:51;;;;;;;3.00;1.35;;;5.00;99.90;;;;;;4913790;29;20139;-83
2023/01/30 14:20:55;;;;;;;3.03;1.13;;;5.20;99.90;;;;;;4894269;29;20088;-82
2023/01/30 14:23:39;;;;;;;3.45;1.30;;;5.20;99.90;;;;;;4903834;29;20136;-81
2023/01/30 14:26:05;;;;;;;2.67;1.40;;;5.20;99.90;;;;;;4904144;29;20036;-80
2023/01/30 14:28:53;;;;;;;3.03;1.20;;;5.30;99.90;;;;;;4921692;29;20060;-80
2023/01/30 14:38:04;;;;;;;;;;;5.40;99.90;;;;;;4924102;29;20075;-79
2023/01/30 14:40:33;;;;;;;3.58;1.17;;;5.50;99.90;;;;;;4923484;29;19933;-81
2023/01/30 14:43:37;;;;;;;3.28;1.50;;;5.60;99.90;;;;;;4923804;29;20028;-80
2023/01/30 14:46:40;;;;;;;2.50;1.00;;;5.60;99.90;;;;;;4911852;29;20025;-80
2023/01/30 14:49:26;;;;;;;2.42;1.05;;;5.70;99.90;;;;;;4891498;29;20060;-78
2023/01/30 14:52:04;;;;;;;2.90;1.02;;;5.60;99.90;;;;;;4885959;29;20029;-82
2023/01/30 14:55:03;;;;;;;2.80;1.00;;;5.60;99.90;;;;;;4887466;29;20057;-79
2023/01/30 15:00:37;;;;;;;2.95;1.27;;;5.60;99.90;;;;;;4884648;29;20033;-82
2023/01/30 15:03:13;;;;;;;3.17;1.33;;;5.60;99.90;;;;;;4886348;29;20113;-80
2023/01/30 15:05:44;;;;;;;3.35;1.40;;;5.70;99.90;;;;;;4877369;29;20120;-79
2023/01/30 15:08:24;;;;;;;3.60;1.40;;;6.20;99.90;;;;;;4901711;29;20294;-79
2023/01/30 15:11:02;;;;;;;3.03;1.30;;;7.50;99.90;;;;;;4872168;29;20219;-81
2023/01/30 15:13:33;;;;;;;3.33;1.30;;;8.00;99.90;;;;;;4868686;29;20038;-79
2023/01/30 15:16:37;;;;;;;3.63;1.40;;;8.50;99.90;;;;;;4884162;29;20033;-81
2023/01/30 15:19:33;;;;;;;3.35;1.63;;;8.10;99.90;;;;;;4868007;29;20022;-82
2023/01/30 15:22:25;;;;;;;3.70;1.88;;;7.60;99.90;;;;;;4883610;29;20114;-82
2023/01/30 15:25:32;;;;;;;2.75;1.60;;;7.10;99.90;;;;;;4884339;29;20248;-82
2023/01/30 15:28:38;;;;;;;5.40;2.60;;;6.60;99.90;;;;;;4884298;29;20030;-80
2023/01/30 15:31:23;;;;;;;5.57;2.50;;;6.10;99.90;;;;;;4867885;29;20033;-79
2023/01/30 15:34:00;;;;;;;3.85;1.90;;;6.10;99.90;;;;;;4868595;29;20056;-80
2023/01/30 15:36:37;;;;;;;4.18;1.67;;;6.20;99.90;;;;;;4887492;29;20213;-80
2023/01/30 15:39:15;;;;;;;3.92;1.80;;;6.30;99.90;;;;;;4896858;29;20029;-82
2023/01/30 15:41:47;;;;;;;3.75;2.10;;;6.50;99.90;;;;;;4872355;29;20037;-84
2023/01/30 15:44:45;;;;;;;5.00;1.98;;;6.20;99.90;;;;;;4871719;29;20366;-82
2023/01/30 15:47:13;;;;;;;;;;;5.90;99.90;;;;;;4886672;29;20068;-79
2023/01/30 15:50:00;;;;;;;;;;;5.60;99.90;;;;;;4907695;29;19907;-82
2023/01/30 15:53:20;;;;;;;4.70;2.22;;;5.30;99.90;;;;;;4892037;29;19995;-84
2023/01/30 15:56:38;;;;;;;5.03;2.50;;;5.10;99.90;;;;;;4890363;29;20031;-85
2023/01/30 16:03:03;;;;;;;4.88;1.88;;;4.80;99.90;;;;;;4890688;29;20097;-84
2023/01/30 16:05:54;;;;;;;;;;;;;;;;;;;;;
2023/01/30 16:08:32;;;;;;;6.65;2.78;;;4.60;99.90;;;;;;4907175;29;20402;-83
2023/01/30 16:11:03;;;;;;;6.32;2.70;;;4.50;99.90;;;;;;4889631;29;20076;-77
2023/01/30 16:13:32;;;;;;;7.75;3.42;;;4.40;99.90;;;;;;4888679;29;20049;-78
2023/01/30 16:16:14;;;;;;;4.80;2.40;;;4.40;99.90;;;;;;4887954;29;20041;-82
2023/01/30 16:18:53;;;;;;;5.40;2.75;;;4.40;99.90;;;;;;4888537;29;20059;-80
2023/01/30 16:21:32;;;;;;;5.60;2.95;;;4.30;99.90;;;;;;4872553;29;20126;-80
2023/01/30 16:24:26;;;;;;;5.45;2.33;;;4.30;99.90;;;;;;4887884;29;20041;-80
2023/01/30 16:27:05;;;;;;;5.32;2.72;;;4.40;99.90;;;;;;4888440;29;20103;-78
2023/01/30 16:30:00;;;;;;;6.68;3.28;;;4.30;99.90;;;;;;4885393;29;20323;-82
2023/01/30 16:32:38;;;;;;;5.10;2.63;;;4.30;99.90;;;;;;4870133;29;20037;-80
2023/01/30 16:35:27;;;;;;;5.05;2.78;;;4.30;99.90;;;;;;4869629;29;20053;-82
2023/01/30 16:38:02;;;;;;;8.00;2.72;;;4.30;99.90;;;;;;4872830;29;20034;-83
2023/01/30 16:40:36;;;;;;;7.03;3.10;;;4.30;99.90;;;;;;4885903;29;20140;-81
2023/01/30 16:43:23;;;;;;;4.47;2.55;;;4.30;99.90;;;;;;4885133;29;20049;-80
2023/01/30 16:45:52;;;;;;;5.82;2.95;;;4.30;99.90;;;;;;4870770;29;20060;-77
2023/01/30 16:48:39;;;;;;;7.22;3.30;;;4.30;99.90;;;;;;4885595;29;20208;-77
2023/01/30 16:51:22;;;;;;;6.93;2.95;;;4.20;99.90;;;;;;4887252;29;20052;-80
2023/01/30 16:54:04;;;;;;;5.55;2.72;;;4.20;99.90;;;;;;4904862;29;20044;-79
2023/01/30 16:57:00;;;;;;;5.40;3.13;;;4.20;99.90;;;;;;4894177;29;20028;-81
2023/01/30 16:59:35;;;;;;;6.45;2.95;;;4.30;99.90;;;;;;4875758;29;20024;-81
2023/01/30 17:02:03;;;;;;;5.65;2.85;;;4.20;99.90;;;;;;4905822;29;20307;-74
2023/01/30 17:04:32;;;;;;;;;;;4.10;99.90;;;;;;4906832;29;20346;-76
2023/01/30 17:07:02;;;;;;;6.97;3.00;;;4.10;99.90;;;;;;4905529;29;19914;-76
2023/01/30 17:09:43;;;;;;;6.65;2.67;;;4.10;99.90;;;;;;4890630;29;20052;-75
2023/01/30 17:12:28;;;;;;;8.75;3.10;;;4.10;99.90;;;;;;4905438;29;20099;-78
2023/01/30 17:15:12;;;;;;;6.82;3.22;;;4.00;99.90;;;;;;4906023;29;20117;-75
2023/01/30 17:17:41;;;;;;;7.22;3.65;;;3.90;99.90;;;;;;4906158;29;20032;-76
2023/01/30 17:20:09;;;;;;;8.30;3.45;;;3.80;99.90;;;;;;4905699;29;20044;-75
2023/01/30 17:22:40;;;;;;;5.20;3.10;;;3.80;99.90;;;;;;4905947;29;20055;-77
2023/01/30 17:25:21;;;;;;;7.88;3.58;;;3.80;99.90;;;;;;4889833;29;20060;-75
2023/01/30 17:27:47;;;;;;;5.85;2.92;;;3.90;99.90;;;;;;4899811;29;20081;-78
2023/01/30 17:30:29;;;;;;;7.15;3.20;;;3.80;99.90;;;;;;4888770;29;20100;-83
2023/01/30 17:32:55;;;;;;;7.30;3.85;;;3.80;99.90;;;;;;4887940;29;20052;-82
2023/01/30 17:35:24;;;;;;;8.90;3.33;;;3.70;99.90;;;;;;4871865;29;20029;-81
2023/01/30 17:37:50;;;;;;;6.43;2.97;;;3.70;99.90;;;;;;4903230;29;20031;-80
2023/01/30 17:40:18;;;;;;;8.48;3.40;;;3.80;99.90;;;;;;4903030;29;20029;-83
2023/01/30 17:42:45;;;;;;;7.18;2.97;;;3.70;99.90;;;;;;4889422;29;20190;-80
2023/01/30 17:45:17;;;;;;;4.78;2.88;;;3.70;99.90;;;;;;4903063;29;20029;-83
2023/01/30 17:47:43;;;;;;;7.55;3.25;;;3.70;99.90;;;;;;4903978;29;20072;-79
2023/01/30 17:50:15;;;;;;;6.55;3.35;;;3.60;99.90;;;;;;4903614;29;20251;-82
2023/01/30 17:52:50;;;;;;;7.25;3.10;;;3.60;99.90;;;;;;4904537;29;20374;-79
2023/01/30 17:55:19;;;;;;;6.53;3.40;;;3.50;99.90;;;;;;4896072;29;20033;-84
2023/01/30 17:57:49;;;;;;;7.18;3.50;;;3.60;99.90;;;;;;4899528;29;20032;-80
2023/01/30 18:00:24;;;;;;;;;;;3.60;99.90;;;;;;4911172;29;20033;-79
2023/01/30 18:02:53;;;;;;;5.65;2.72;;;3.60;99.90;;;;;;4907069;29;19923;-78
2023/01/30 18:05:29;;;;;;;8.77;3.58;;;3.60;99.90;;;;;;4891843;29;20512;-78
2023/01/30 18:07:55;;;;;;;6.35;3.20;;;3.60;99.90;;;;;;4903266;29;20429;-79
2023/01/30 18:10:21;;;;;;;8.43;3.97;;;3.60;99.90;;;;;;4887732;29;20036;-76
2023/01/30 18:12:56;;;;;;;5.32;3.35;;;3.60;99.90;;;;;;4902852;29;20226;-79
2023/01/30 18:15:24;;;;;;;9.98;3.58;;;3.50;99.90;;;;;;4888177;29;20033;-81
2023/01/30 18:21:11;;;;;;;7.78;3.88;;;3.50;99.90;;;;;;4956022;29;20042;-76
2023/01/30 18:23:37;;;;;;;8.07;3.60;;;3.50;99.90;;;;;;4930872;29;20039;-79
2023/01/30 18:26:08;;;;;;;8.02;3.60;;;3.50;99.90;;;;;;4946660;29;20027;-78
2023/01/30 18:28:33;;;;;;;8.60;4.00;;;3.50;99.90;;;;;;4964105;29;20038;-78
2023/01/30 18:30:59;;;;;;;7.65;3.78;;;3.50;99.90;;;;;;4957326;28;20023;-79
2023/01/30 18:33:26;;;;;;;9.63;4.30;;;3.60;99.90;;;;;;4932258;29;20142;-81
2023/01/30 18:35:58;;;;;;;7.13;4.03;;;3.50;99.90;;;;;;4944586;29;20054;-80
2023/01/30 18:38:24;;;;;;;13.50;6.10;;;3.60;99.90;;;;;;4939270;29;20052;-81
2023/01/30 18:41:10;;;;;;;10.43;5.20;;;3.60;99.90;;;;;;4907949;29;20036;-81
2023/01/30 18:43:36;;;;;;;7.55;3.72;;;3.60;99.90;;;;;;4919577;29;20422;-82
2023/01/30 18:46:07;;;;;;;10.85;3.70;;;3.60;99.90;;;;;;4923434;29;20028;-80
2023/01/30 18:48:40;;;;;;;6.78;3.75;;;3.70;99.90;;;;;;4924049;29;20071;-80
2023/01/30 18:51:18;;;;;;;6.47;3.88;;;3.80;99.90;;;;;;4907521;29;20326;-82
2023/01/30 18:53:53;;;;;;;7.38;3.47;;;3.90;99.90;;;;;;4892605;29;20111;-80
2023/01/30 18:56:32;;;;;;;8.13;4.20;;;3.90;99.90;;;;;;4908117;29;20226;-83
2023/01/30 18:59:25;;;;;;;8.55;3.95;;;4.00;99.90;;;;;;4910843;29;20038;-79
2023/01/30 19:01:51;;;;;;;6.85;3.47;;;4.00;99.90;;;;;;4891889;29;20052;-80
2023/01/30 19:04:27;;;;;;;7.25;3.47;;;4.00;99.90;;;;;;4891747;29;20036;-81
2023/01/30 19:06:55;;;;;;;8.85;4.05;;;4.10;99.90;;;;;;4923149;29;20079;-81
2023/01/30 19:09:21;;;;;;;5.93;3.55;;;4.10;99.90;;;;;;4917522;29;20136;-81
2023/01/30 19:14:39;;;;;;;8.35;4.07;;;3.90;99.90;;;;;;4930371;29;20039;-79
2023/01/30 19:17:13;;;;;;;8.55;3.92;;;3.80;99.90;;;;;;4927553;29;20065;-79
2023/01/30 19:23:46;;;;;;;9.15;4.07;;;3.70;99.90;;;;;;4938985;29;20034;-80
2023/01/30 19:26:35;;;;;;;8.15;4.40;;;3.60;99.90;;;;;;4946362;29;20323;-79
2023/01/30 19:29:01;;;;;;;7.45;3.83;;;3.60;99.90;;;;;;4930214;29;20020;-77
2023/01/30 19:31:50;;;;;;;8.98;4.38;;;3.70;99.90;;;;;;4945712;29;20039;-79
2023/01/30 19:34:51;;;;;;;10.40;4.80;;;3.70;99.90;;;;;;4942278;29;20054;-80
2023/01/30 19:37:23;;;;;;;7.72;4.07;;;3.80;99.90;;;;;;4942848;29;20027;-79
2023/01/30 19:40:07;;;;;;;7.45;3.90;;;3.80;99.90;;;;;;4964417;29;20039;-78